sensor_id;sensor_type;location;lat;lon;timestamp;P1;durP1;ratioP1;P2;durP2;ratioP2
17854;SDS011;9053;53.358;6.382;2023-04-28T00:02:19;10.17;;;7.33;;
17854;SDS011;9053;53.358;6.382;2023-04-28T00:04:56;11.23;;;7.63;;
17854;SDS011;9053;53.358;6.382;2023-04-28T00:07:26;12.87;;;7.50;;
17854;SDS011;9053;53.358;6.382;2023-04-28T00:09:58;9.93;;;7.10;;
17854;SDS011;9053;53.358;6.382;2023-04-28T00:12:33;11.47;;;7.00;;
17854;SDS011;9053;53.358;6.382;2023-04-28T00:15:06;10.27;;;7.17;;
17854;SDS011;9053;53.358;6.382;2023-04-28T00:17:36;11.47;;;7.40;;
17854;SDS011;9053;53.358;6.382;2023-04-28T00:20:10;12.30;;;7.60;;
17854;SDS011;9053;53.358;6.382;2023-04-28T00:22:42;10.40;;;7.50;;
17854;SDS011;9053;53.358;6.382;2023-04-28T00:25:16;13.40;;;7.90;;
17854;SDS011;9053;53.358;6.382;2023-04-28T00:27:51;11.63;;;7.70;;
17854;SDS011;9053;53.358;6.382;2023-04-28T00:30:21;12.70;;;8.07;;
17854;SDS011;9053;53.358;6.382;2023-04-28T00:32:51;13.27;;;7.77;;
17854;SDS011;9053;53.358;6.382;2023-04-28T00:35:26;11.20;;;7.47;;
17854;SDS011;9053;53.358;6.382;2023-04-28T00:37:56;12.17;;;7.23;;
17854;SDS011;9053;53.358;6.382;2023-04-28T00:40:34;9.73;;;7.23;;
17854;SDS011;9053;53.358;6.382;2023-04-28T00:43:04;14.30;;;7.07;;
17854;SDS011;9053;53.358;6.382;2023-04-28T00:45:34;10.83;;;7.30;;
17854;SDS011;9053;53.358;6.382;2023-04-28T00:48:05;12.90;;;7.67;;
17854;SDS011;9053;53.358;6.382;2023-04-28T00:50:46;12.53;;;7.77;;
17854;SDS011;9053;53.358;6.382;2023-04-28T00:53:18;12.50;;;7.67;;
17854;SDS011;9053;53.358;6.382;2023-04-28T00:55:51;16.17;;;7.83;;
17854;SDS011;9053;53.358;6.382;2023-04-28T00:58:25;12.00;;;7.83;;
17854;SDS011;9053;53.358;6.382;2023-04-28T01:01:00;10.97;;;7.20;;
17854;SDS011;9053;53.358;6.382;2023-04-28T01:03:31;15.53;;;8.90;;
17854;SDS011;9053;53.358;6.382;2023-04-28T01:06:07;12.70;;;7.77;;
17854;SDS011;9053;53.358;6.382;2023-04-28T01:08:49;13.70;;;8.07;;
17854;SDS011;9053;53.358;6.382;2023-04-28T01:11:19;12.10;;;7.43;;
17854;SDS011;9053;53.358;6.382;2023-04-28T01:13:52;12.33;;;7.73;;
17854;SDS011;9053;53.358;6.382;2023-04-28T01:16:25;11.00;;;7.63;;
17854;SDS011;9053;53.358;6.382;2023-04-28T01:19:05;13.83;;;7.90;;
17854;SDS011;9053;53.358;6.382;2023-04-28T01:21:41;10.37;;;7.10;;
17854;SDS011;9053;53.358;6.382;2023-04-28T01:24:30;13.57;;;7.73;;
17854;SDS011;9053;53.358;6.382;2023-04-28T01:27:02;11.13;;;7.50;;
17854;SDS011;9053;53.358;6.382;2023-04-28T01:29:44;13.77;;;8.30;;
17854;SDS011;9053;53.358;6.382;2023-04-28T01:32:16;12.97;;;7.87;;
17854;SDS011;9053;53.358;6.382;2023-04-28T01:34:46;14.13;;;7.50;;
17854;SDS011;9053;53.358;6.382;2023-04-28T01:37:15;12.80;;;7.80;;
17854;SDS011;9053;53.358;6.382;2023-04-28T01:39:48;13.37;;;7.97;;
17854;SDS011;9053;53.358;6.382;2023-04-28T01:42:21;12.73;;;7.40;;
17854;SDS011;9053;53.358;6.382;2023-04-28T01:44:58;11.93;;;7.33;;
17854;SDS011;9053;53.358;6.382;2023-04-28T01:47:32;12.00;;;8.13;;
17854;SDS011;9053;53.358;6.382;2023-04-28T01:50:08;12.00;;;7.57;;
17854;SDS011;9053;53.358;6.382;2023-04-28T01:52:42;14.33;;;8.27;;
17854;SDS011;9053;53.358;6.382;2023-04-28T01:55:19;11.43;;;7.20;;
17854;SDS011;9053;53.358;6.382;2023-04-28T01:57:50;10.87;;;7.43;;
17854;SDS011;9053;53.358;6.382;2023-04-28T02:00:26;11.67;;;7.77;;
17854;SDS011;9053;53.358;6.382;2023-04-28T02:02:56;12.83;;;7.93;;
17854;SDS011;9053;53.358;6.382;2023-04-28T02:05:36;10.93;;;7.33;;
17854;SDS011;9053;53.358;6.382;2023-04-28T02:08:13;11.50;;;7.67;;
17854;SDS011;9053;53.358;6.382;2023-04-28T02:10:52;12.13;;;7.70;;
17854;SDS011;9053;53.358;6.382;2023-04-28T02:13:22;11.23;;;7.97;;
17854;SDS011;9053;53.358;6.382;2023-04-28T02:15:54;10.47;;;7.63;;
17854;SDS011;9053;53.358;6.382;2023-04-28T02:18:27;12.80;;;7.73;;
17854;SDS011;9053;53.358;6.382;2023-04-28T02:21:09;14.90;;;7.83;;
17854;SDS011;9053;53.358;6.382;2023-04-28T02:23:40;11.93;;;8.33;;
17854;SDS011;9053;53.358;6.382;2023-04-28T02:26:19;11.43;;;7.57;;
17854;SDS011;9053;53.358;6.382;2023-04-28T02:28:54;13.73;;;7.83;;
17854;SDS011;9053;53.358;6.382;2023-04-28T02:31:26;11.83;;;7.90;;
17854;SDS011;9053;53.358;6.382;2023-04-28T02:33:58;13.47;;;8.60;;
17854;SDS011;9053;53.358;6.382;2023-04-28T02:36:32;12.27;;;8.07;;
17854;SDS011;9053;53.358;6.382;2023-04-28T02:39:02;13.33;;;8.20;;
17854;SDS011;9053;53.358;6.382;2023-04-28T02:41:37;14.00;;;8.57;;
17854;SDS011;9053;53.358;6.382;2023-04-28T02:44:10;12.70;;;8.27;;
17854;SDS011;9053;53.358;6.382;2023-04-28T02:46:44;12.00;;;8.27;;
17854;SDS011;9053;53.358;6.382;2023-04-28T02:49:14;14.73;;;8.57;;
17854;SDS011;9053;53.358;6.382;2023-04-28T02:51:48;12.00;;;8.43;;
17854;SDS011;9053;53.358;6.382;2023-04-28T02:54:25;12.50;;;7.80;;
17854;SDS011;9053;53.358;6.382;2023-04-28T02:57:05;11.53;;;7.97;;
17854;SDS011;9053;53.358;6.382;2023-04-28T02:59:38;14.90;;;8.80;;
17854;SDS011;9053;53.358;6.382;2023-04-28T03:02:08;14.97;;;9.00;;
17854;SDS011;9053;53.358;6.382;2023-04-28T03:04:38;14.40;;;8.57;;
17854;SDS011;9053;53.358;6.382;2023-04-28T03:07:13;16.93;;;10.20;;
17854;SDS011;9053;53.358;6.382;2023-04-28T03:09:47;15.23;;;9.83;;
17854;SDS011;9053;53.358;6.382;2023-04-28T03:12:27;15.07;;;9.03;;
17854;SDS011;9053;53.358;6.382;2023-04-28T03:15:09;15.87;;;9.50;;
17854;SDS011;9053;53.358;6.382;2023-04-28T03:17:40;16.70;;;10.07;;
17854;SDS011;9053;53.358;6.382;2023-04-28T03:20:11;17.33;;;10.10;;
17854;SDS011;9053;53.358;6.382;2023-04-28T03:22:42;14.90;;;9.50;;
17854;SDS011;9053;53.358;6.382;2023-04-28T03:25:14;16.13;;;10.03;;
17854;SDS011;9053;53.358;6.382;2023-04-28T03:27:51;16.47;;;10.03;;
17854;SDS011;9053;53.358;6.382;2023-04-28T03:30:23;16.77;;;9.77;;
17854;SDS011;9053;53.358;6.382;2023-04-28T03:32:57;14.30;;;9.67;;
17854;SDS011;9053;53.358;6.382;2023-04-28T03:35:35;17.47;;;10.17;;
17854;SDS011;9053;53.358;6.382;2023-04-28T03:38:10;15.30;;;9.90;;
17854;SDS011;9053;53.358;6.382;2023-04-28T03:40:43;17.27;;;10.07;;
17854;SDS011;9053;53.358;6.382;2023-04-28T03:43:21;18.83;;;10.80;;
17854;SDS011;9053;53.358;6.382;2023-04-28T03:45:55;19.60;;;10.00;;
17854;SDS011;9053;53.358;6.382;2023-04-28T03:48:25;17.27;;;10.43;;
17854;SDS011;9053;53.358;6.382;2023-04-28T03:50:59;19.17;;;10.80;;
17854;SDS011;9053;53.358;6.382;2023-04-28T03:53:31;18.30;;;10.83;;
17854;SDS011;9053;53.358;6.382;2023-04-28T03:56:06;18.50;;;11.13;;
17854;SDS011;9053;53.358;6.382;2023-04-28T03:58:41;17.73;;;10.47;;
17854;SDS011;9053;53.358;6.382;2023-04-28T04:01:11;18.20;;;10.70;;
17854;SDS011;9053;53.358;6.382;2023-04-28T04:03:44;18.80;;;11.27;;
17854;SDS011;9053;53.358;6.382;2023-04-28T04:06:19;20.00;;;10.60;;
17854;SDS011;9053;53.358;6.382;2023-04-28T04:08:51;21.40;;;11.63;;
17854;SDS011;9053;53.358;6.382;2023-04-28T04:11:21;18.60;;;10.97;;
17854;SDS011;9053;53.358;6.382;2023-04-28T04:13:54;16.33;;;10.60;;
17854;SDS011;9053;53.358;6.382;2023-04-28T04:16:23;19.17;;;11.03;;
17854;SDS011;9053;53.358;6.382;2023-04-28T04:18:54;17.50;;;10.43;;
17854;SDS011;9053;53.358;6.382;2023-04-28T04:21:24;15.63;;;10.37;;
17854;SDS011;9053;53.358;6.382;2023-04-28T04:23:56;20.77;;;11.30;;
17854;SDS011;9053;53.358;6.382;2023-04-28T04:26:26;17.87;;;10.17;;
17854;SDS011;9053;53.358;6.382;2023-04-28T04:29:02;16.50;;;10.87;;
17854;SDS011;9053;53.358;6.382;2023-04-28T04:31:32;18.10;;;10.30;;
17854;SDS011;9053;53.358;6.382;2023-04-28T04:34:09;17.47;;;10.33;;
17854;SDS011;9053;53.358;6.382;2023-04-28T04:36:40;20.37;;;10.33;;
17854;SDS011;9053;53.358;6.382;2023-04-28T04:39:11;17.83;;;11.33;;
17854;SDS011;9053;53.358;6.382;2023-04-28T04:41:47;18.57;;;11.83;;
17854;SDS011;9053;53.358;6.382;2023-04-28T04:44:21;19.13;;;11.43;;
17854;SDS011;9053;53.358;6.382;2023-04-28T04:46:53;19.87;;;12.23;;
17854;SDS011;9053;53.358;6.382;2023-04-28T04:49:24;18.70;;;11.23;;
17854;SDS011;9053;53.358;6.382;2023-04-28T04:51:57;21.87;;;11.90;;
17854;SDS011;9053;53.358;6.382;2023-04-28T04:54:27;23.23;;;12.13;;
17854;SDS011;9053;53.358;6.382;2023-04-28T04:56:57;23.37;;;11.70;;
17854;SDS011;9053;53.358;6.382;2023-04-28T04:59:29;22.17;;;12.63;;
17854;SDS011;9053;53.358;6.382;2023-04-28T05:01:59;22.27;;;11.57;;
17854;SDS011;9053;53.358;6.382;2023-04-28T05:04:30;22.07;;;12.03;;
17854;SDS011;9053;53.358;6.382;2023-04-28T05:07:01;20.50;;;12.00;;
17854;SDS011;9053;53.358;6.382;2023-04-28T05:09:31;20.00;;;11.43;;
17854;SDS011;9053;53.358;6.382;2023-04-28T05:12:01;20.20;;;12.33;;
17854;SDS011;9053;53.358;6.382;2023-04-28T05:14:33;21.67;;;12.00;;
17854;SDS011;9053;53.358;6.382;2023-04-28T05:17:03;21.13;;;11.73;;
17854;SDS011;9053;53.358;6.382;2023-04-28T05:19:33;22.30;;;11.77;;
17854;SDS011;9053;53.358;6.382;2023-04-28T05:22:04;19.03;;;12.03;;
17854;SDS011;9053;53.358;6.382;2023-04-28T05:24:34;22.13;;;12.63;;
17854;SDS011;9053;53.358;6.382;2023-04-28T05:27:04;20.60;;;12.10;;
17854;SDS011;9053;53.358;6.382;2023-04-28T05:29:42;19.13;;;11.47;;
17854;SDS011;9053;53.358;6.382;2023-04-28T05:32:12;19.53;;;11.80;;
17854;SDS011;9053;53.358;6.382;2023-04-28T05:34:45;22.67;;;12.67;;
17854;SDS011;9053;53.358;6.382;2023-04-28T05:37:15;23.97;;;13.00;;
17854;SDS011;9053;53.358;6.382;2023-04-28T05:39:45;18.23;;;11.87;;
17854;SDS011;9053;53.358;6.382;2023-04-28T05:42:17;21.83;;;12.20;;
17854;SDS011;9053;53.358;6.382;2023-04-28T05:44:52;20.97;;;12.10;;
17854;SDS011;9053;53.358;6.382;2023-04-28T05:47:22;20.37;;;11.90;;
17854;SDS011;9053;53.358;6.382;2023-04-28T05:49:52;18.50;;;11.63;;
17854;SDS011;9053;53.358;6.382;2023-04-28T05:52:25;19.43;;;10.60;;
17854;SDS011;9053;53.358;6.382;2023-04-28T05:54:57;21.07;;;12.13;;
17854;SDS011;9053;53.358;6.382;2023-04-28T05:57:30;21.13;;;11.33;;
17854;SDS011;9053;53.358;6.382;2023-04-28T06:00:20;18.50;;;11.03;;
17854;SDS011;9053;53.358;6.382;2023-04-28T06:02:59;16.37;;;10.87;;
17854;SDS011;9053;53.358;6.382;2023-04-28T06:05:35;19.07;;;11.80;;
17854;SDS011;9053;53.358;6.382;2023-04-28T06:08:07;16.03;;;10.43;;
17854;SDS011;9053;53.358;6.382;2023-04-28T06:10:39;21.97;;;11.90;;
17854;SDS011;9053;53.358;6.382;2023-04-28T06:13:17;19.57;;;11.10;;
17854;SDS011;9053;53.358;6.382;2023-04-28T06:15:52;21.03;;;11.27;;
17854;SDS011;9053;53.358;6.382;2023-04-28T06:18:23;18.63;;;10.90;;
17854;SDS011;9053;53.358;6.382;2023-04-28T06:21:00;16.90;;;10.13;;
17854;SDS011;9053;53.358;6.382;2023-04-28T06:23:30;19.20;;;10.97;;
17854;SDS011;9053;53.358;6.382;2023-04-28T06:26:06;19.33;;;11.37;;
17854;SDS011;9053;53.358;6.382;2023-04-28T06:28:44;19.13;;;11.07;;
17854;SDS011;9053;53.358;6.382;2023-04-28T06:31:16;18.63;;;11.57;;
17854;SDS011;9053;53.358;6.382;2023-04-28T06:33:46;16.90;;;11.13;;
17854;SDS011;9053;53.358;6.382;2023-04-28T06:36:19;16.77;;;10.70;;
17854;SDS011;9053;53.358;6.382;2023-04-28T06:38:53;15.50;;;10.63;;
17854;SDS011;9053;53.358;6.382;2023-04-28T06:41:24;17.93;;;11.10;;
17854;SDS011;9053;53.358;6.382;2023-04-28T06:43:54;16.73;;;11.50;;
17854;SDS011;9053;53.358;6.382;2023-04-28T06:46:28;17.47;;;10.47;;
17854;SDS011;9053;53.358;6.382;2023-04-28T06:48:58;16.77;;;9.83;;
17854;SDS011;9053;53.358;6.382;2023-04-28T06:51:29;16.43;;;10.37;;
17854;SDS011;9053;53.358;6.382;2023-04-28T06:54:02;15.93;;;10.33;;
17854;SDS011;9053;53.358;6.382;2023-04-28T06:56:34;19.70;;;11.23;;
17854;SDS011;9053;53.358;6.382;2023-04-28T06:59:04;19.30;;;11.10;;
17854;SDS011;9053;53.358;6.382;2023-04-28T07:01:40;19.80;;;11.37;;
17854;SDS011;9053;53.358;6.382;2023-04-28T07:04:15;16.30;;;10.80;;
17854;SDS011;9053;53.358;6.382;2023-04-28T07:06:49;17.57;;;10.50;;
17854;SDS011;9053;53.358;6.382;2023-04-28T07:09:19;18.17;;;10.80;;
17854;SDS011;9053;53.358;6.382;2023-04-28T07:11:49;18.13;;;11.43;;
17854;SDS011;9053;53.358;6.382;2023-04-28T07:14:18;17.37;;;10.50;;
17854;SDS011;9053;53.358;6.382;2023-04-28T07:16:53;15.30;;;10.80;;
17854;SDS011;9053;53.358;6.382;2023-04-28T07:19:23;17.07;;;11.33;;
17854;SDS011;9053;53.358;6.382;2023-04-28T07:21:52;20.53;;;11.33;;
17854;SDS011;9053;53.358;6.382;2023-04-28T07:24:22;16.80;;;10.33;;
17854;SDS011;9053;53.358;6.382;2023-04-28T07:26:52;18.23;;;10.30;;
17854;SDS011;9053;53.358;6.382;2023-04-28T07:29:25;18.13;;;10.50;;
17854;SDS011;9053;53.358;6.382;2023-04-28T07:32:02;14.63;;;10.17;;
17854;SDS011;9053;53.358;6.382;2023-04-28T07:34:36;16.80;;;10.00;;
17854;SDS011;9053;53.358;6.382;2023-04-28T07:37:11;17.20;;;10.50;;
17854;SDS011;9053;53.358;6.382;2023-04-28T07:39:43;18.53;;;10.60;;
17854;SDS011;9053;53.358;6.382;2023-04-28T07:42:13;16.67;;;10.73;;
17854;SDS011;9053;53.358;6.382;2023-04-28T07:44:44;20.00;;;10.77;;
17854;SDS011;9053;53.358;6.382;2023-04-28T07:47:17;14.80;;;10.57;;
17854;SDS011;9053;53.358;6.382;2023-04-28T07:49:46;14.20;;;9.37;;
17854;SDS011;9053;53.358;6.382;2023-04-28T07:52:16;16.97;;;10.10;;
17854;SDS011;9053;53.358;6.382;2023-04-28T07:54:46;16.83;;;10.70;;
17854;SDS011;9053;53.358;6.382;2023-04-28T07:57:16;16.97;;;10.23;;
17854;SDS011;9053;53.358;6.382;2023-04-28T07:59:46;15.27;;;9.70;;
17854;SDS011;9053;53.358;6.382;2023-04-28T08:02:19;17.00;;;10.23;;
17854;SDS011;9053;53.358;6.382;2023-04-28T08:04:50;16.73;;;10.40;;
17854;SDS011;9053;53.358;6.382;2023-04-28T08:07:22;16.53;;;10.03;;
17854;SDS011;9053;53.358;6.382;2023-04-28T08:09:52;17.77;;;11.10;;
17854;SDS011;9053;53.358;6.382;2023-04-28T08:12:22;18.50;;;10.33;;
17854;SDS011;9053;53.358;6.382;2023-04-28T08:14:52;15.37;;;9.37;;
17854;SDS011;9053;53.358;6.382;2023-04-28T08:17:25;15.83;;;10.73;;
17854;SDS011;9053;53.358;6.382;2023-04-28T08:19:54;16.30;;;10.77;;
17854;SDS011;9053;53.358;6.382;2023-04-28T08:22:24;16.03;;;10.30;;
17854;SDS011;9053;53.358;6.382;2023-04-28T08:24:54;14.73;;;9.93;;
17854;SDS011;9053;53.358;6.382;2023-04-28T08:27:24;15.53;;;9.90;;
17854;SDS011;9053;53.358;6.382;2023-04-28T08:29:54;16.10;;;10.00;;
17854;SDS011;9053;53.358;6.382;2023-04-28T08:32:26;13.87;;;9.77;;
17854;SDS011;9053;53.358;6.382;2023-04-28T08:34:59;14.63;;;9.83;;
17854;SDS011;9053;53.358;6.382;2023-04-28T08:37:30;14.17;;;9.80;;
17854;SDS011;9053;53.358;6.382;2023-04-28T08:40:01;16.70;;;10.20;;
17854;SDS011;9053;53.358;6.382;2023-04-28T08:42:35;15.47;;;10.10;;
17854;SDS011;9053;53.358;6.382;2023-04-28T08:45:07;13.40;;;9.53;;
17854;SDS011;9053;53.358;6.382;2023-04-28T08:47:43;15.23;;;9.30;;
17854;SDS011;9053;53.358;6.382;2023-04-28T08:50:15;15.43;;;10.33;;
17854;SDS011;9053;53.358;6.382;2023-04-28T08:52:50;14.57;;;9.60;;
17854;SDS011;9053;53.358;6.382;2023-04-28T08:55:21;17.03;;;9.97;;
17854;SDS011;9053;53.358;6.382;2023-04-28T08:57:52;13.40;;;9.97;;
17854;SDS011;9053;53.358;6.382;2023-04-28T09:00:23;14.07;;;9.70;;
17854;SDS011;9053;53.358;6.382;2023-04-28T09:02:56;18.33;;;11.13;;
17854;SDS011;9053;53.358;6.382;2023-04-28T09:05:29;13.10;;;9.93;;
17854;SDS011;9053;53.358;6.382;2023-04-28T09:08:02;13.50;;;9.80;;
17854;SDS011;9053;53.358;6.382;2023-04-28T09:10:32;17.60;;;10.83;;
17854;SDS011;9053;53.358;6.382;2023-04-28T09:13:03;14.70;;;10.03;;
17854;SDS011;9053;53.358;6.382;2023-04-28T09:15:33;14.50;;;9.60;;
17854;SDS011;9053;53.358;6.382;2023-04-28T09:18:09;14.60;;;9.73;;
17854;SDS011;9053;53.358;6.382;2023-04-28T09:20:44;17.97;;;10.00;;
17854;SDS011;9053;53.358;6.382;2023-04-28T09:23:14;15.97;;;10.13;;
17854;SDS011;9053;53.358;6.382;2023-04-28T09:25:55;14.20;;;9.90;;
17854;SDS011;9053;53.358;6.382;2023-04-28T09:28:27;15.30;;;10.57;;
17854;SDS011;9053;53.358;6.382;2023-04-28T09:30:57;15.40;;;10.50;;
17854;SDS011;9053;53.358;6.382;2023-04-28T09:33:29;14.53;;;10.10;;
17854;SDS011;9053;53.358;6.382;2023-04-28T09:35:59;13.77;;;10.23;;
17854;SDS011;9053;53.358;6.382;2023-04-28T09:38:29;15.17;;;10.07;;
17854;SDS011;9053;53.358;6.382;2023-04-28T09:41:00;15.30;;;10.40;;
17854;SDS011;9053;53.358;6.382;2023-04-28T09:43:31;13.80;;;9.87;;
17854;SDS011;9053;53.358;6.382;2023-04-28T09:46:03;13.97;;;10.50;;
17854;SDS011;9053;53.358;6.382;2023-04-28T09:48:36;16.00;;;10.90;;
17854;SDS011;9053;53.358;6.382;2023-04-28T09:51:07;12.50;;;9.80;;
17854;SDS011;9053;53.358;6.382;2023-04-28T09:53:38;16.60;;;11.40;;
17854;SDS011;9053;53.358;6.382;2023-04-28T09:56:09;17.60;;;10.40;;
17854;SDS011;9053;53.358;6.382;2023-04-28T09:58:39;14.27;;;10.87;;
17854;SDS011;9053;53.358;6.382;2023-04-28T10:01:12;16.67;;;10.67;;
17854;SDS011;9053;53.358;6.382;2023-04-28T10:03:45;12.70;;;9.43;;
17854;SDS011;9053;53.358;6.382;2023-04-28T10:06:21;15.73;;;10.50;;
17854;SDS011;9053;53.358;6.382;2023-04-28T10:08:51;14.17;;;9.90;;
17854;SDS011;9053;53.358;6.382;2023-04-28T10:11:21;13.50;;;10.10;;
17854;SDS011;9053;53.358;6.382;2023-04-28T10:13:51;13.50;;;10.10;;
17854;SDS011;9053;53.358;6.382;2023-04-28T10:16:22;13.30;;;10.20;;
17854;SDS011;9053;53.358;6.382;2023-04-28T10:18:55;14.07;;;10.20;;
17854;SDS011;9053;53.358;6.382;2023-04-28T10:21:25;13.20;;;10.47;;
17854;SDS011;9053;53.358;6.382;2023-04-28T10:24:07;15.10;;;10.60;;
17854;SDS011;9053;53.358;6.382;2023-04-28T10:29:32;13.60;;;10.37;;
17854;SDS011;9053;53.358;6.382;2023-04-28T10:32:15;17.50;;;10.37;;
17854;SDS011;9053;53.358;6.382;2023-04-28T10:34:49;16.50;;;10.37;;
17854;SDS011;9053;53.358;6.382;2023-04-28T10:37:19;16.73;;;11.37;;
17854;SDS011;9053;53.358;6.382;2023-04-28T10:43:00;14.37;;;10.87;;
17854;SDS011;9053;53.358;6.382;2023-04-28T10:51:35;15.67;;;10.37;;
17854;SDS011;9053;53.358;6.382;2023-04-28T10:54:17;15.47;;;11.20;;
17854;SDS011;9053;53.358;6.382;2023-04-28T11:02:56;15.23;;;11.30;;
17854;SDS011;9053;53.358;6.382;2023-04-28T11:05:29;14.93;;;10.33;;
17854;SDS011;9053;53.358;6.382;2023-04-28T11:11:18;15.87;;;11.43;;
17854;SDS011;9053;53.358;6.382;2023-04-28T11:13:50;18.73;;;12.83;;
17854;SDS011;9053;53.358;6.382;2023-04-28T11:16:21;19.87;;;13.03;;
17854;SDS011;9053;53.358;6.382;2023-04-28T11:18:57;19.33;;;13.10;;
17854;SDS011;9053;53.358;6.382;2023-04-28T11:21:30;19.93;;;12.60;;
17854;SDS011;9053;53.358;6.382;2023-04-28T11:24:06;18.07;;;13.23;;
17854;SDS011;9053;53.358;6.382;2023-04-28T11:26:38;17.37;;;13.20;;
17854;SDS011;9053;53.358;6.382;2023-04-28T11:29:09;17.20;;;13.97;;
17854;SDS011;9053;53.358;6.382;2023-04-28T11:31:48;20.20;;;14.70;;
17854;SDS011;9053;53.358;6.382;2023-04-28T11:34:19;22.93;;;14.07;;
17854;SDS011;9053;53.358;6.382;2023-04-28T11:36:49;19.17;;;13.63;;
17854;SDS011;9053;53.358;6.382;2023-04-28T11:39:27;18.23;;;12.93;;
17854;SDS011;9053;53.358;6.382;2023-04-28T11:41:59;18.73;;;13.83;;
17854;SDS011;9053;53.358;6.382;2023-04-28T11:44:30;19.33;;;14.97;;
17854;SDS011;9053;53.358;6.382;2023-04-28T11:47:00;20.57;;;13.70;;
17854;SDS011;9053;53.358;6.382;2023-04-28T11:49:40;19.47;;;14.23;;
17854;SDS011;9053;53.358;6.382;2023-04-28T11:52:12;20.50;;;14.57;;
17854;SDS011;9053;53.358;6.382;2023-04-28T11:54:51;22.70;;;14.97;;
17854;SDS011;9053;53.358;6.382;2023-04-28T11:57:22;21.60;;;15.20;;
17854;SDS011;9053;53.358;6.382;2023-04-28T11:59:52;20.03;;;15.27;;
17854;SDS011;9053;53.358;6.382;2023-04-28T12:02:26;20.13;;;14.90;;
17854;SDS011;9053;53.358;6.382;2023-04-28T12:05:03;21.90;;;15.40;;
17854;SDS011;9053;53.358;6.382;2023-04-28T12:07:40;19.53;;;14.93;;
17854;SDS011;9053;53.358;6.382;2023-04-28T12:10:14;21.53;;;15.03;;
17854;SDS011;9053;53.358;6.382;2023-04-28T12:12:45;20.03;;;15.13;;
17854;SDS011;9053;53.358;6.382;2023-04-28T12:15:18;22.80;;;15.53;;
17854;SDS011;9053;53.358;6.382;2023-04-28T12:17:50;21.73;;;15.60;;
17854;SDS011;9053;53.358;6.382;2023-04-28T12:20:33;21.67;;;15.80;;
17854;SDS011;9053;53.358;6.382;2023-04-28T12:23:04;23.70;;;15.50;;
17854;SDS011;9053;53.358;6.382;2023-04-28T12:25:44;22.93;;;16.73;;
17854;SDS011;9053;53.358;6.382;2023-04-28T12:28:14;24.30;;;16.83;;
17854;SDS011;9053;53.358;6.382;2023-04-28T12:30:44;22.37;;;16.60;;
17854;SDS011;9053;53.358;6.382;2023-04-28T12:33:21;20.43;;;15.07;;
17854;SDS011;9053;53.358;6.382;2023-04-28T12:35:56;23.70;;;17.90;;
17854;SDS011;9053;53.358;6.382;2023-04-28T12:38:29;23.30;;;16.40;;
17854;SDS011;9053;53.358;6.382;2023-04-28T12:41:01;21.73;;;15.13;;
17854;SDS011;9053;53.358;6.382;2023-04-28T12:43:33;23.33;;;16.63;;
17854;SDS011;9053;53.358;6.382;2023-04-28T12:46:03;25.07;;;16.67;;
17854;SDS011;9053;53.358;6.382;2023-04-28T12:48:34;27.37;;;18.07;;
17854;SDS011;9053;53.358;6.382;2023-04-28T12:51:04;25.23;;;17.13;;
17854;SDS011;9053;53.358;6.382;2023-04-28T12:53:36;27.47;;;18.80;;
17854;SDS011;9053;53.358;6.382;2023-04-28T12:56:11;24.03;;;17.53;;
17854;SDS011;9053;53.358;6.382;2023-04-28T12:58:43;23.47;;;17.83;;
17854;SDS011;9053;53.358;6.382;2023-04-28T13:01:16;29.03;;;18.60;;
17854;SDS011;9053;53.358;6.382;2023-04-28T13:03:55;27.77;;;19.37;;
17854;SDS011;9053;53.358;6.382;2023-04-28T13:06:26;25.63;;;19.17;;
17854;SDS011;9053;53.358;6.382;2023-04-28T13:08:58;26.73;;;18.50;;
17854;SDS011;9053;53.358;6.382;2023-04-28T13:11:41;28.80;;;19.53;;
17854;SDS011;9053;53.358;6.382;2023-04-28T13:14:11;26.87;;;19.37;;
17854;SDS011;9053;53.358;6.382;2023-04-28T13:16:43;26.40;;;19.10;;
17854;SDS011;9053;53.358;6.382;2023-04-28T13:19:15;27.87;;;19.20;;
17854;SDS011;9053;53.358;6.382;2023-04-28T13:21:45;26.63;;;18.90;;
17854;SDS011;9053;53.358;6.382;2023-04-28T13:24:15;26.87;;;18.70;;
17854;SDS011;9053;53.358;6.382;2023-04-28T13:26:47;27.43;;;19.03;;
17854;SDS011;9053;53.358;6.382;2023-04-28T13:29:18;25.07;;;18.70;;
17854;SDS011;9053;53.358;6.382;2023-04-28T13:31:50;28.80;;;19.23;;
17854;SDS011;9053;53.358;6.382;2023-04-28T13:34:20;29.60;;;20.50;;
17854;SDS011;9053;53.358;6.382;2023-04-28T13:36:51;28.23;;;20.70;;
17854;SDS011;9053;53.358;6.382;2023-04-28T13:39:24;29.73;;;20.40;;
17854;SDS011;9053;53.358;6.382;2023-04-28T13:41:56;26.53;;;19.53;;
17854;SDS011;9053;53.358;6.382;2023-04-28T13:44:29;31.33;;;21.50;;
17854;SDS011;9053;53.358;6.382;2023-04-28T13:46:59;30.90;;;20.90;;
17854;SDS011;9053;53.358;6.382;2023-04-28T13:49:36;29.43;;;21.17;;
17854;SDS011;9053;53.358;6.382;2023-04-28T13:52:11;29.40;;;20.77;;
17854;SDS011;9053;53.358;6.382;2023-04-28T14:05:45;28.63;;;20.07;;
17854;SDS011;9053;53.358;6.382;2023-04-28T14:08:18;34.50;;;21.57;;
17854;SDS011;9053;53.358;6.382;2023-04-28T14:10:54;32.43;;;22.13;;
17854;SDS011;9053;53.358;6.382;2023-04-28T14:13:24;27.20;;;20.33;;
17854;SDS011;9053;53.358;6.382;2023-04-28T14:15:55;30.23;;;20.60;;
17854;SDS011;9053;53.358;6.382;2023-04-28T14:18:28;32.80;;;21.90;;
17854;SDS011;9053;53.358;6.382;2023-04-28T14:21:24;34.13;;;23.10;;
17854;SDS011;9053;53.358;6.382;2023-04-28T14:23:54;31.13;;;22.60;;
17854;SDS011;9053;53.358;6.382;2023-04-28T14:26:24;34.17;;;24.17;;
17854;SDS011;9053;53.358;6.382;2023-04-28T14:29:03;32.47;;;23.63;;
17854;SDS011;9053;53.358;6.382;2023-04-28T14:31:38;35.37;;;24.23;;
17854;SDS011;9053;53.358;6.382;2023-04-28T14:34:08;38.30;;;25.80;;
17854;SDS011;9053;53.358;6.382;2023-04-28T14:36:48;34.40;;;24.83;;
17854;SDS011;9053;53.358;6.382;2023-04-28T14:39:20;35.47;;;25.53;;
17854;SDS011;9053;53.358;6.382;2023-04-28T14:41:54;37.77;;;25.20;;
17854;SDS011;9053;53.358;6.382;2023-04-28T14:44:24;38.17;;;26.57;;
17854;SDS011;9053;53.358;6.382;2023-04-28T14:46:56;36.97;;;26.10;;
17854;SDS011;9053;53.358;6.382;2023-04-28T14:49:29;37.90;;;25.23;;
17854;SDS011;9053;53.358;6.382;2023-04-28T14:52:03;41.23;;;27.13;;
17854;SDS011;9053;53.358;6.382;2023-04-28T14:54:33;43.83;;;27.83;;
17854;SDS011;9053;53.358;6.382;2023-04-28T14:57:07;42.43;;;26.03;;
17854;SDS011;9053;53.358;6.382;2023-04-28T14:59:45;38.87;;;26.90;;
17854;SDS011;9053;53.358;6.382;2023-04-28T15:02:17;37.47;;;25.40;;
17854;SDS011;9053;53.358;6.382;2023-04-28T15:04:54;35.77;;;26.00;;
17854;SDS011;9053;53.358;6.382;2023-04-28T15:07:32;39.10;;;25.43;;
17854;SDS011;9053;53.358;6.382;2023-04-28T15:10:02;40.90;;;29.23;;
17854;SDS011;9053;53.358;6.382;2023-04-28T15:12:35;40.77;;;27.80;;
17854;SDS011;9053;53.358;6.382;2023-04-28T15:15:08;41.10;;;27.70;;
17854;SDS011;9053;53.358;6.382;2023-04-28T15:17:39;42.20;;;29.10;;
17854;SDS011;9053;53.358;6.382;2023-04-28T15:20:12;40.83;;;28.47;;
17854;SDS011;9053;53.358;6.382;2023-04-28T15:22:44;40.53;;;29.30;;
17854;SDS011;9053;53.358;6.382;2023-04-28T15:25:19;42.53;;;29.73;;
17854;SDS011;9053;53.358;6.382;2023-04-28T15:27:51;44.13;;;29.47;;
17854;SDS011;9053;53.358;6.382;2023-04-28T15:30:25;38.93;;;28.23;;
17854;SDS011;9053;53.358;6.382;2023-04-28T15:32:59;38.70;;;28.07;;
17854;SDS011;9053;53.358;6.382;2023-04-28T15:35:31;44.27;;;29.17;;
17854;SDS011;9053;53.358;6.382;2023-04-28T15:38:04;39.03;;;26.97;;
17854;SDS011;9053;53.358;6.382;2023-04-28T15:40:34;45.07;;;28.57;;
17854;SDS011;9053;53.358;6.382;2023-04-28T15:43:08;41.07;;;28.17;;
17854;SDS011;9053;53.358;6.382;2023-04-28T15:45:45;41.77;;;28.37;;